sensor_id;sensor_type;location;lat;lon;timestamp;P1;durP1;ratioP1;P2;durP2;ratioP2
44214;SDS011;29884;47.450;19.124;2023-07-24T00:00:58;2.80;;;1.52;;
44214;SDS011;29884;47.450;19.124;2023-07-24T00:03:23;3.42;;;1.88;;
44214;SDS011;29884;47.450;19.124;2023-07-24T00:05:49;2.80;;;1.70;;
44214;SDS011;29884;47.450;19.124;2023-07-24T00:08:15;3.47;;;1.67;;
44214;SDS011;29884;47.450;19.124;2023-07-24T00:10:40;2.92;;;1.73;;
44214;SDS011;29884;47.450;19.124;2023-07-24T00:13:06;2.75;;;1.88;;
44214;SDS011;29884;47.450;19.124;2023-07-24T00:15:32;4.13;;;1.70;;
44214;SDS011;29884;47.450;19.124;2023-07-24T00:17:58;2.35;;;1.48;;
44214;SDS011;29884;47.450;19.124;2023-07-24T00:20:24;2.15;;;1.58;;
44214;SDS011;29884;47.450;19.124;2023-07-24T00:22:51;2.90;;;1.67;;
44214;SDS011;29884;47.450;19.124;2023-07-24T00:25:16;2.22;;;1.30;;
44214;SDS011;29884;47.450;19.124;2023-07-24T00:27:42;2.85;;;1.42;;
44214;SDS011;29884;47.450;19.124;2023-07-24T00:30:08;2.53;;;1.50;;
44214;SDS011;29884;47.450;19.124;2023-07-24T00:32:34;2.30;;;1.52;;
44214;SDS011;29884;47.450;19.124;2023-07-24T00:35:00;2.60;;;1.60;;
44214;SDS011;29884;47.450;19.124;2023-07-24T00:37:25;2.50;;;1.52;;
44214;SDS011;29884;47.450;19.124;2023-07-24T00:39:51;2.63;;;1.40;;
44214;SDS011;29884;47.450;19.124;2023-07-24T00:42:16;1.80;;;1.40;;
44214;SDS011;29884;47.450;19.124;2023-07-24T00:44:42;2.15;;;1.48;;
44214;SDS011;29884;47.450;19.124;2023-07-24T00:47:08;2.55;;;1.42;;
44214;SDS011;29884;47.450;19.124;2023-07-24T00:49:34;2.10;;;1.50;;
44214;SDS011;29884;47.450;19.124;2023-07-24T00:52:00;2.60;;;1.38;;
44214;SDS011;29884;47.450;19.124;2023-07-24T00:54:26;2.58;;;1.40;;
44214;SDS011;29884;47.450;19.124;2023-07-24T00:56:53;3.33;;;1.67;;
44214;SDS011;29884;47.450;19.124;2023-07-24T00:59:18;3.13;;;1.63;;
44214;SDS011;29884;47.450;19.124;2023-07-24T01:01:46;5.10;;;1.50;;
44214;SDS011;29884;47.450;19.124;2023-07-24T01:04:13;2.70;;;1.85;;
44214;SDS011;29884;47.450;19.124;2023-07-24T01:06:40;4.03;;;1.70;;
44214;SDS011;29884;47.450;19.124;2023-07-24T01:09:05;3.15;;;1.63;;
44214;SDS011;29884;47.450;19.124;2023-07-24T01:11:36;2.85;;;1.80;;
44214;SDS011;29884;47.450;19.124;2023-07-24T01:17:04;2.92;;;1.65;;
44214;SDS011;29884;47.450;19.124;2023-07-24T01:19:37;2.15;;;1.65;;
44214;SDS011;29884;47.450;19.124;2023-07-24T01:22:32;3.28;;;1.60;;
44214;SDS011;29884;47.450;19.124;2023-07-24T01:25:09;2.42;;;1.50;;
44214;SDS011;29884;47.450;19.124;2023-07-24T01:27:47;2.55;;;1.60;;
44214;SDS011;29884;47.450;19.124;2023-07-24T01:30:14;4.30;;;1.90;;
44214;SDS011;29884;47.450;19.124;2023-07-24T01:32:42;3.58;;;2.03;;
44214;SDS011;29884;47.450;19.124;2023-07-24T01:35:07;3.00;;;1.58;;
44214;SDS011;29884;47.450;19.124;2023-07-24T01:37:34;2.83;;;1.65;;
44214;SDS011;29884;47.450;19.124;2023-07-24T01:40:00;2.97;;;1.80;;
44214;SDS011;29884;47.450;19.124;2023-07-24T01:42:27;2.92;;;2.00;;
44214;SDS011;29884;47.450;19.124;2023-07-24T01:44:54;2.80;;;1.80;;
44214;SDS011;29884;47.450;19.124;2023-07-24T01:47:20;2.70;;;1.92;;
44214;SDS011;29884;47.450;19.124;2023-07-24T01:49:46;4.95;;;2.13;;
44214;SDS011;29884;47.450;19.124;2023-07-24T01:52:12;3.70;;;2.17;;
44214;SDS011;29884;47.450;19.124;2023-07-24T01:54:38;2.90;;;1.70;;
44214;SDS011;29884;47.450;19.124;2023-07-24T01:57:04;3.95;;;2.15;;
44214;SDS011;29884;47.450;19.124;2023-07-24T01:59:30;3.83;;;2.13;;
44214;SDS011;29884;47.450;19.124;2023-07-24T02:01:56;2.97;;;1.90;;
44214;SDS011;29884;47.450;19.124;2023-07-24T02:04:21;3.22;;;1.92;;
44214;SDS011;29884;47.450;19.124;2023-07-24T02:06:48;5.65;;;2.20;;
44214;SDS011;29884;47.450;19.124;2023-07-24T02:09:14;3.83;;;1.77;;
44214;SDS011;29884;47.450;19.124;2023-07-24T02:11:41;3.10;;;1.67;;
44214;SDS011;29884;47.450;19.124;2023-07-24T02:14:07;2.75;;;1.80;;
44214;SDS011;29884;47.450;19.124;2023-07-24T02:16:32;2.55;;;1.67;;
44214;SDS011;29884;47.450;19.124;2023-07-24T02:18:58;5.45;;;1.63;;
44214;SDS011;29884;47.450;19.124;2023-07-24T02:21:24;3.22;;;2.00;;
44214;SDS011;29884;47.450;19.124;2023-07-24T02:23:50;2.95;;;2.03;;
44214;SDS011;29884;47.450;19.124;2023-07-24T02:26:15;3.83;;;2.00;;
44214;SDS011;29884;47.450;19.124;2023-07-24T02:28:41;2.95;;;2.25;;
44214;SDS011;29884;47.450;19.124;2023-07-24T02:31:07;2.83;;;1.70;;
44214;SDS011;29884;47.450;19.124;2023-07-24T02:33:32;2.53;;;1.77;;
44214;SDS011;29884;47.450;19.124;2023-07-24T02:35:58;3.45;;;1.90;;
44214;SDS011;29884;47.450;19.124;2023-07-24T02:38:25;3.70;;;1.90;;
44214;SDS011;29884;47.450;19.124;2023-07-24T02:40:51;3.13;;;2.03;;
44214;SDS011;29884;47.450;19.124;2023-07-24T02:43:17;3.20;;;1.75;;
44214;SDS011;29884;47.450;19.124;2023-07-24T02:45:43;2.67;;;1.98;;
44214;SDS011;29884;47.450;19.124;2023-07-24T02:48:08;2.38;;;1.75;;
44214;SDS011;29884;47.450;19.124;2023-07-24T02:50:34;4.43;;;1.98;;
44214;SDS011;29884;47.450;19.124;2023-07-24T02:53:00;2.92;;;2.00;;
44214;SDS011;29884;47.450;19.124;2023-07-24T02:55:26;3.33;;;2.00;;
44214;SDS011;29884;47.450;19.124;2023-07-24T02:57:51;3.63;;;2.20;;
44214;SDS011;29884;47.450;19.124;2023-07-24T03:00:18;3.38;;;1.88;;
44214;SDS011;29884;47.450;19.124;2023-07-24T03:02:44;2.72;;;1.95;;
44214;SDS011;29884;47.450;19.124;2023-07-24T03:05:09;2.97;;;2.00;;
44214;SDS011;29884;47.450;19.124;2023-07-24T03:07:35;6.03;;;2.13;;
44214;SDS011;29884;47.450;19.124;2023-07-24T03:10:01;3.13;;;2.15;;
44214;SDS011;29884;47.450;19.124;2023-07-24T03:12:27;3.50;;;2.05;;
44214;SDS011;29884;47.450;19.124;2023-07-24T03:14:53;3.20;;;2.20;;
44214;SDS011;29884;47.450;19.124;2023-07-24T03:17:19;3.70;;;2.15;;
44214;SDS011;29884;47.450;19.124;2023-07-24T03:19:44;3.00;;;1.88;;
44214;SDS011;29884;47.450;19.124;2023-07-24T03:22:10;3.97;;;2.33;;
44214;SDS011;29884;47.450;19.124;2023-07-24T03:24:36;2.80;;;2.05;;
44214;SDS011;29884;47.450;19.124;2023-07-24T03:27:02;3.17;;;1.90;;
44214;SDS011;29884;47.450;19.124;2023-07-24T03:29:27;3.25;;;2.08;;
44214;SDS011;29884;47.450;19.124;2023-07-24T03:31:53;3.35;;;2.70;;
44214;SDS011;29884;47.450;19.124;2023-07-24T03:34:19;3.95;;;2.28;;
44214;SDS011;29884;47.450;19.124;2023-07-24T03:36:45;4.43;;;2.33;;
44214;SDS011;29884;47.450;19.124;2023-07-24T03:39:11;4.18;;;2.42;;
44214;SDS011;29884;47.450;19.124;2023-07-24T03:41:37;3.35;;;2.15;;
44214;SDS011;29884;47.450;19.124;2023-07-24T03:44:04;3.75;;;2.20;;
44214;SDS011;29884;47.450;19.124;2023-07-24T03:46:31;5.85;;;2.90;;
44214;SDS011;29884;47.450;19.124;2023-07-24T03:48:57;5.93;;;2.50;;
44214;SDS011;29884;47.450;19.124;2023-07-24T03:51:23;3.33;;;2.55;;
44214;SDS011;29884;47.450;19.124;2023-07-24T03:53:48;4.07;;;2.42;;
44214;SDS011;29884;47.450;19.124;2023-07-24T03:56:14;5.80;;;2.50;;
44214;SDS011;29884;47.450;19.124;2023-07-24T03:58:40;4.82;;;2.47;;
44214;SDS011;29884;47.450;19.124;2023-07-24T04:01:06;3.85;;;2.47;;
44214;SDS011;29884;47.450;19.124;2023-07-24T04:03:32;4.72;;;2.55;;
44214;SDS011;29884;47.450;19.124;2023-07-24T04:05:58;4.63;;;2.58;;
44214;SDS011;29884;47.450;19.124;2023-07-24T04:08:24;3.05;;;2.50;;
44214;SDS011;29884;47.450;19.124;2023-07-24T04:10:50;4.95;;;2.50;;
44214;SDS011;29884;47.450;19.124;2023-07-24T04:13:16;3.35;;;2.53;;
44214;SDS011;29884;47.450;19.124;2023-07-24T04:15:41;4.00;;;2.90;;
44214;SDS011;29884;47.450;19.124;2023-07-24T04:18:09;4.03;;;3.03;;
44214;SDS011;29884;47.450;19.124;2023-07-24T04:20:35;4.43;;;3.30;;
44214;SDS011;29884;47.450;19.124;2023-07-24T04:23:00;4.00;;;3.20;;
44214;SDS011;29884;47.450;19.124;2023-07-24T04:25:26;4.20;;;3.38;;
44214;SDS011;29884;47.450;19.124;2023-07-24T04:27:52;4.80;;;3.72;;
44214;SDS011;29884;47.450;19.124;2023-07-24T04:30:18;4.20;;;3.60;;
44214;SDS011;29884;47.450;19.124;2023-07-24T04:32:44;6.40;;;4.07;;
44214;SDS011;29884;47.450;19.124;2023-07-24T04:35:11;4.20;;;3.67;;
44214;SDS011;29884;47.450;19.124;2023-07-24T04:37:36;5.18;;;4.18;;
44214;SDS011;29884;47.450;19.124;2023-07-24T04:40:02;4.80;;;3.80;;
44214;SDS011;29884;47.450;19.124;2023-07-24T04:42:28;5.03;;;4.20;;
44214;SDS011;29884;47.450;19.124;2023-07-24T04:44:54;4.47;;;4.00;;
44214;SDS011;29884;47.450;19.124;2023-07-24T04:47:19;5.63;;;4.45;;
44214;SDS011;29884;47.450;19.124;2023-07-24T04:49:45;6.72;;;4.43;;
44214;SDS011;29884;47.450;19.124;2023-07-24T04:52:11;5.50;;;4.28;;
44214;SDS011;29884;47.450;19.124;2023-07-24T04:54:38;5.80;;;4.45;;
44214;SDS011;29884;47.450;19.124;2023-07-24T04:57:03;8.38;;;4.82;;
44214;SDS011;29884;47.450;19.124;2023-07-24T04:59:29;5.00;;;4.50;;
44214;SDS011;29884;47.450;19.124;2023-07-24T05:01:55;5.28;;;4.53;;
44214;SDS011;29884;47.450;19.124;2023-07-24T05:04:21;8.02;;;4.32;;
44214;SDS011;29884;47.450;19.124;2023-07-24T05:06:47;5.15;;;4.65;;
44214;SDS011;29884;47.450;19.124;2023-07-24T05:09:12;7.15;;;4.88;;
44214;SDS011;29884;47.450;19.124;2023-07-24T05:11:39;4.82;;;4.32;;
44214;SDS011;29884;47.450;19.124;2023-07-24T05:14:05;5.45;;;4.22;;
44214;SDS011;29884;47.450;19.124;2023-07-24T05:16:31;4.18;;;3.75;;
44214;SDS011;29884;47.450;19.124;2023-07-24T05:18:56;5.57;;;4.60;;
44214;SDS011;29884;47.450;19.124;2023-07-24T05:21:22;6.93;;;4.05;;
44214;SDS011;29884;47.450;19.124;2023-07-24T05:23:48;4.78;;;4.38;;
44214;SDS011;29884;47.450;19.124;2023-07-24T05:26:14;5.40;;;4.57;;
44214;SDS011;29884;47.450;19.124;2023-07-24T05:28:39;6.80;;;5.13;;
44214;SDS011;29884;47.450;19.124;2023-07-24T05:31:05;6.45;;;4.97;;
44214;SDS011;29884;47.450;19.124;2023-07-24T05:33:33;6.13;;;5.32;;
44214;SDS011;29884;47.450;19.124;2023-07-24T05:35:59;6.78;;;5.28;;
44214;SDS011;29884;47.450;19.124;2023-07-24T05:38:29;6.20;;;5.10;;
44214;SDS011;29884;47.450;19.124;2023-07-24T05:40:58;5.63;;;4.93;;
44214;SDS011;29884;47.450;19.124;2023-07-24T05:43:26;5.50;;;4.95;;
44214;SDS011;29884;47.450;19.124;2023-07-24T05:45:52;5.97;;;4.50;;
44214;SDS011;29884;47.450;19.124;2023-07-24T05:48:19;6.07;;;4.97;;
44214;SDS011;29884;47.450;19.124;2023-07-24T05:50:45;6.03;;;4.90;;
44214;SDS011;29884;47.450;19.124;2023-07-24T05:53:10;5.30;;;4.80;;
44214;SDS011;29884;47.450;19.124;2023-07-24T05:55:36;7.55;;;6.03;;
44214;SDS011;29884;47.450;19.124;2023-07-24T05:58:02;6.22;;;5.30;;
44214;SDS011;29884;47.450;19.124;2023-07-24T06:00:28;5.80;;;5.20;;
44214;SDS011;29884;47.450;19.124;2023-07-24T06:02:54;6.38;;;5.53;;
44214;SDS011;29884;47.450;19.124;2023-07-24T06:05:19;6.07;;;5.30;;
44214;SDS011;29884;47.450;19.124;2023-07-24T06:07:45;6.45;;;5.07;;
44214;SDS011;29884;47.450;19.124;2023-07-24T06:10:11;6.13;;;5.22;;
44214;SDS011;29884;47.450;19.124;2023-07-24T06:12:38;5.53;;;4.50;;
44214;SDS011;29884;47.450;19.124;2023-07-24T06:15:03;4.82;;;3.95;;
44214;SDS011;29884;47.450;19.124;2023-07-24T06:17:30;8.85;;;4.63;;
44214;SDS011;29884;47.450;19.124;2023-07-24T06:19:56;6.70;;;4.82;;
44214;SDS011;29884;47.450;19.124;2023-07-24T06:22:22;6.70;;;5.28;;
44214;SDS011;29884;47.450;19.124;2023-07-24T06:24:48;6.40;;;5.00;;
44214;SDS011;29884;47.450;19.124;2023-07-24T06:27:14;5.70;;;4.13;;
44214;SDS011;29884;47.450;19.124;2023-07-24T06:29:40;7.78;;;5.18;;
44214;SDS011;29884;47.450;19.124;2023-07-24T06:32:06;4.95;;;4.45;;
44214;SDS011;29884;47.450;19.124;2023-07-24T06:34:32;7.15;;;4.80;;
44214;SDS011;29884;47.450;19.124;2023-07-24T06:36:58;6.07;;;4.90;;
44214;SDS011;29884;47.450;19.124;2023-07-24T06:39:24;6.07;;;5.00;;
44214;SDS011;29884;47.450;19.124;2023-07-24T06:41:53;6.18;;;4.82;;
44214;SDS011;29884;47.450;19.124;2023-07-24T06:44:19;6.82;;;5.30;;
44214;SDS011;29884;47.450;19.124;2023-07-24T06:46:44;6.90;;;4.63;;
44214;SDS011;29884;47.450;19.124;2023-07-24T06:49:10;8.70;;;5.20;;
44214;SDS011;29884;47.450;19.124;2023-07-24T06:51:37;5.90;;;4.80;;
44214;SDS011;29884;47.450;19.124;2023-07-24T06:54:03;6.68;;;4.25;;
44214;SDS011;29884;47.450;19.124;2023-07-24T06:56:30;5.40;;;4.65;;
44214;SDS011;29884;47.450;19.124;2023-07-24T06:58:56;6.68;;;5.32;;
44214;SDS011;29884;47.450;19.124;2023-07-24T07:01:22;6.10;;;4.97;;
44214;SDS011;29884;47.450;19.124;2023-07-24T07:03:48;7.22;;;4.55;;
44214;SDS011;29884;47.450;19.124;2023-07-24T07:06:14;9.18;;;4.57;;
44214;SDS011;29884;47.450;19.124;2023-07-24T07:08:40;5.80;;;3.75;;
44214;SDS011;29884;47.450;19.124;2023-07-24T07:11:06;4.60;;;3.58;;
44214;SDS011;29884;47.450;19.124;2023-07-24T07:13:32;5.30;;;3.50;;
44214;SDS011;29884;47.450;19.124;2023-07-24T07:15:57;5.00;;;3.95;;
44214;SDS011;29884;47.450;19.124;2023-07-24T07:18:23;5.95;;;3.65;;
44214;SDS011;29884;47.450;19.124;2023-07-24T07:20:50;6.43;;;3.97;;
44214;SDS011;29884;47.450;19.124;2023-07-24T07:23:17;4.85;;;3.85;;
44214;SDS011;29884;47.450;19.124;2023-07-24T07:25:43;4.40;;;3.97;;
44214;SDS011;29884;47.450;19.124;2023-07-24T07:28:10;6.70;;;4.30;;
44214;SDS011;29884;47.450;19.124;2023-07-24T07:30:37;6.97;;;3.85;;
44214;SDS011;29884;47.450;19.124;2023-07-24T07:33:02;8.25;;;4.10;;
44214;SDS011;29884;47.450;19.124;2023-07-24T07:35:30;6.28;;;3.92;;
44214;SDS011;29884;47.450;19.124;2023-07-24T07:37:56;6.93;;;3.80;;
44214;SDS011;29884;47.450;19.124;2023-07-24T07:40:21;6.50;;;4.03;;
44214;SDS011;29884;47.450;19.124;2023-07-24T07:42:48;7.05;;;4.32;;
44214;SDS011;29884;47.450;19.124;2023-07-24T07:45:14;7.38;;;3.42;;
44214;SDS011;29884;47.450;19.124;2023-07-24T07:47:40;9.98;;;4.32;;
44214;SDS011;29884;47.450;19.124;2023-07-24T07:50:05;9.07;;;4.38;;
44214;SDS011;29884;47.450;19.124;2023-07-24T07:52:31;9.02;;;4.05;;
44214;SDS011;29884;47.450;19.124;2023-07-24T07:54:57;7.78;;;4.22;;
44214;SDS011;29884;47.450;19.124;2023-07-24T07:57:23;5.78;;;3.70;;
44214;SDS011;29884;47.450;19.124;2023-07-24T07:59:48;6.30;;;4.10;;
44214;SDS011;29884;47.450;19.124;2023-07-24T08:02:14;6.28;;;4.47;;
44214;SDS011;29884;47.450;19.124;2023-07-24T08:04:40;6.25;;;4.70;;
44214;SDS011;29884;47.450;19.124;2023-07-24T08:07:05;10.38;;;4.10;;
44214;SDS011;29884;47.450;19.124;2023-07-24T08:09:31;9.38;;;4.55;;
44214;SDS011;29884;47.450;19.124;2023-07-24T08:11:58;9.23;;;4.53;;
44214;SDS011;29884;47.450;19.124;2023-07-24T08:14:24;6.85;;;4.70;;
44214;SDS011;29884;47.450;19.124;2023-07-24T08:16:50;6.72;;;4.53;;
44214;SDS011;29884;47.450;19.124;2023-07-24T08:19:16;9.80;;;4.45;;
44214;SDS011;29884;47.450;19.124;2023-07-24T08:21:42;10.25;;;4.22;;
44214;SDS011;29884;47.450;19.124;2023-07-24T08:24:07;8.82;;;4.43;;
44214;SDS011;29884;47.450;19.124;2023-07-24T08:26:33;6.10;;;4.30;;
44214;SDS011;29884;47.450;19.124;2023-07-24T08:28:59;8.10;;;4.07;;
44214;SDS011;29884;47.450;19.124;2023-07-24T08:31:24;7.68;;;4.15;;
44214;SDS011;29884;47.450;19.124;2023-07-24T08:33:50;8.27;;;4.15;;
44214;SDS011;29884;47.450;19.124;2023-07-24T08:36:16;8.93;;;3.58;;
44214;SDS011;29884;47.450;19.124;2023-07-24T08:38:41;7.63;;;4.13;;
44214;SDS011;29884;47.450;19.124;2023-07-24T08:43:34;8.57;;;4.20;;
44214;SDS011;29884;47.450;19.124;2023-07-24T08:46:01;10.82;;;4.25;;
44214;SDS011;29884;47.450;19.124;2023-07-24T08:48:33;8.20;;;3.83;;
44214;SDS011;29884;47.450;19.124;2023-07-24T08:51:06;6.72;;;3.58;;
44214;SDS011;29884;47.450;19.124;2023-07-24T08:53:34;4.82;;;3.92;;
44214;SDS011;29884;47.450;19.124;2023-07-24T08:56:04;6.93;;;3.90;;
44214;SDS011;29884;47.450;19.124;2023-07-24T08:58:33;7.45;;;3.70;;
44214;SDS011;29884;47.450;19.124;2023-07-24T09:01:00;9.70;;;3.85;;
44214;SDS011;29884;47.450;19.124;2023-07-24T09:03:27;8.68;;;3.65;;
44214;SDS011;29884;47.450;19.124;2023-07-24T09:05:54;6.43;;;3.72;;
44214;SDS011;29884;47.450;19.124;2023-07-24T09:11:01;6.07;;;3.92;;
44214;SDS011;29884;47.450;19.124;2023-07-24T09:13:28;7.55;;;3.95;;
44214;SDS011;29884;47.450;19.124;2023-07-24T09:15:54;12.73;;;4.10;;
44214;SDS011;29884;47.450;19.124;2023-07-24T09:18:20;8.77;;;3.60;;
44214;SDS011;29884;47.450;19.124;2023-07-24T09:20:46;5.97;;;3.95;;
44214;SDS011;29884;47.450;19.124;2023-07-24T09:23:13;6.47;;;3.67;;
44214;SDS011;29884;47.450;19.124;2023-07-24T09:25:40;9.23;;;3.83;;
44214;SDS011;29884;47.450;19.124;2023-07-24T09:28:13;9.27;;;3.95;;
44214;SDS011;29884;47.450;19.124;2023-07-24T09:30:41;5.55;;;3.28;;
44214;SDS011;29884;47.450;19.124;2023-07-24T09:33:15;5.53;;;3.25;;
44214;SDS011;29884;47.450;19.124;2023-07-24T09:35:41;6.65;;;4.05;;
44214;SDS011;29884;47.450;19.124;2023-07-24T09:38:08;4.95;;;3.88;;
44214;SDS011;29884;47.450;19.124;2023-07-24T09:40:38;7.20;;;3.55;;
44214;SDS011;29884;47.450;19.124;2023-07-24T09:45:44;6.78;;;3.78;;
44214;SDS011;29884;47.450;19.124;2023-07-24T09:48:11;8.45;;;3.65;;
44214;SDS011;29884;47.450;19.124;2023-07-24T09:50:39;9.02;;;4.28;;
44214;SDS011;29884;47.450;19.124;2023-07-24T09:53:06;9.23;;;4.10;;
44214;SDS011;29884;47.450;19.124;2023-07-24T09:55:59;6.05;;;4.20;;
44214;SDS011;29884;47.450;19.124;2023-07-24T09:58:29;7.38;;;4.28;;
44214;SDS011;29884;47.450;19.124;2023-07-24T10:00:57;7.25;;;4.03;;
44214;SDS011;29884;47.450;19.124;2023-07-24T10:03:23;7.22;;;3.88;;
44214;SDS011;29884;47.450;19.124;2023-07-24T10:05:50;6.32;;;4.13;;
44214;SDS011;29884;47.450;19.124;2023-07-24T10:08:16;6.72;;;3.78;;
44214;SDS011;29884;47.450;19.124;2023-07-24T10:10:43;6.97;;;4.72;;
44214;SDS011;29884;47.450;19.124;2023-07-24T10:13:09;5.82;;;4.28;;
44214;SDS011;29884;47.450;19.124;2023-07-24T10:15:39;6.97;;;4.70;;
44214;SDS011;29884;47.450;19.124;2023-07-24T10:18:09;8.20;;;4.90;;
44214;SDS011;29884;47.450;19.124;2023-07-24T10:20:36;8.73;;;5.32;;
44214;SDS011;29884;47.450;19.124;2023-07-24T10:23:04;7.65;;;4.78;;
44214;SDS011;29884;47.450;19.124;2023-07-24T10:25:32;8.50;;;4.65;;
44214;SDS011;29884;47.450;19.124;2023-07-24T10:28:02;9.00;;;5.10;;
44214;SDS011;29884;47.450;19.124;2023-07-24T10:30:35;7.90;;;4.55;;
44214;SDS011;29884;47.450;19.124;2023-07-24T10:33:08;8.05;;;5.10;;
44214;SDS011;29884;47.450;19.124;2023-07-24T10:35:53;7.90;;;5.15;;
44214;SDS011;29884;47.450;19.124;2023-07-24T10:38:19;8.20;;;4.60;;
44214;SDS011;29884;47.450;19.124;2023-07-24T10:41:01;7.88;;;5.40;;
44214;SDS011;29884;47.450;19.124;2023-07-24T10:43:28;8.02;;;4.90;;
44214;SDS011;29884;47.450;19.124;2023-07-24T10:46:04;8.20;;;4.72;;
44214;SDS011;29884;47.450;19.124;2023-07-24T10:48:30;6.43;;;4.60;;
44214;SDS011;29884;47.450;19.124;2023-07-24T10:50:56;7.07;;;4.60;;
44214;SDS011;29884;47.450;19.124;2023-07-24T10:53:22;8.20;;;4.35;;
44214;SDS011;29884;47.450;19.124;2023-07-24T10:55:50;8.02;;;4.68;;
44214;SDS011;29884;47.450;19.124;2023-07-24T10:58:16;6.35;;;4.68;;
44214;SDS011;29884;47.450;19.124;2023-07-24T11:00:42;9.32;;;5.18;;
44214;SDS011;29884;47.450;19.124;2023-07-24T11:03:12;7.55;;;4.40;;
44214;SDS011;29884;47.450;19.124;2023-07-24T11:05:42;8.65;;;4.82;;
44214;SDS011;29884;47.450;19.124;2023-07-24T11:10:46;5.72;;;3.75;;
44214;SDS011;29884;47.450;19.124;2023-07-24T11:13:20;6.75;;;4.50;;
44214;SDS011;29884;47.450;19.124;2023-07-24T11:15:48;7.72;;;5.18;;
44214;SDS011;29884;47.450;19.124;2023-07-24T11:18:15;6.15;;;4.57;;
44214;SDS011;29884;47.450;19.124;2023-07-24T11:20:46;8.35;;;4.28;;
44214;SDS011;29884;47.450;19.124;2023-07-24T11:23:13;7.47;;;4.68;;
44214;SDS011;29884;47.450;19.124;2023-07-24T11:25:39;8.40;;;4.32;;
44214;SDS011;29884;47.450;19.124;2023-07-24T11:28:06;6.40;;;4.38;;
44214;SDS011;29884;47.450;19.124;2023-07-24T11:30:33;8.60;;;4.35;;
44214;SDS011;29884;47.450;19.124;2023-07-24T11:33:01;6.88;;;4.25;;
44214;SDS011;29884;47.450;19.124;2023-07-24T11:35:28;6.00;;;4.28;;
44214;SDS011;29884;47.450;19.124;2023-07-24T11:37:54;7.63;;;4.00;;
44214;SDS011;29884;47.450;19.124;2023-07-24T11:40:20;10.00;;;4.43;;
44214;SDS011;29884;47.450;19.124;2023-07-24T11:42:47;6.78;;;4.40;;
44214;SDS011;29884;47.450;19.124;2023-07-24T11:45:14;6.25;;;4.00;;
44214;SDS011;29884;47.450;19.124;2023-07-24T11:50:15;8.90;;;4.20;;
44214;SDS011;29884;47.450;19.124;2023-07-24T11:52:42;8.30;;;4.10;;
44214;SDS011;29884;47.450;19.124;2023-07-24T11:55:10;8.55;;;4.50;;
44214;SDS011;29884;47.450;19.124;2023-07-24T11:57:40;5.60;;;3.95;;
44214;SDS011;29884;47.450;19.124;2023-07-24T12:00:16;6.60;;;4.22;;
44214;SDS011;29884;47.450;19.124;2023-07-24T12:02:46;10.40;;;4.18;;
44214;SDS011;29884;47.450;19.124;2023-07-24T12:05:12;6.70;;;4.15;;
44214;SDS011;29884;47.450;19.124;2023-07-24T12:07:38;8.55;;;4.03;;
44214;SDS011;29884;47.450;19.124;2023-07-24T12:10:04;6.45;;;4.05;;
44214;SDS011;29884;47.450;19.124;2023-07-24T12:12:43;4.82;;;3.58;;
44214;SDS011;29884;47.450;19.124;2023-07-24T12:15:13;7.22;;;3.90;;
44214;SDS011;29884;47.450;19.124;2023-07-24T12:17:40;5.20;;;3.88;;
44214;SDS011;29884;47.450;19.124;2023-07-24T12:20:06;9.70;;;3.97;;
44214;SDS011;29884;47.450;19.124;2023-07-24T12:22:34;5.88;;;3.50;;
44214;SDS011;29884;47.450;19.124;2023-07-24T12:25:01;8.98;;;3.90;;
44214;SDS011;29884;47.450;19.124;2023-07-24T12:27:28;4.90;;;3.33;;
44214;SDS011;29884;47.450;19.124;2023-07-24T12:29:53;7.00;;;3.47;;
44214;SDS011;29884;47.450;19.124;2023-07-24T12:32:19;5.07;;;3.35;;
44214;SDS011;29884;47.450;19.124;2023-07-24T12:34:48;5.95;;;3.33;;
44214;SDS011;29884;47.450;19.124;2023-07-24T12:37:16;7.05;;;3.80;;
44214;SDS011;29884;47.450;19.124;2023-07-24T12:39:42;7.93;;;3.60;;
44214;SDS011;29884;47.450;19.124;2023-07-24T12:42:12;5.95;;;3.25;;
44214;SDS011;29884;47.450;19.124;2023-07-24T12:44:38;4.22;;;3.25;;
44214;SDS011;29884;47.450;19.124;2023-07-24T12:47:04;8.00;;;3.78;;
44214;SDS011;29884;47.450;19.124;2023-07-24T12:49:30;6.10;;;3.58;;
44214;SDS011;29884;47.450;19.124;2023-07-24T12:51:56;4.78;;;2.95;;
44214;SDS011;29884;47.450;19.124;2023-07-24T12:54:22;5.97;;;3.67;;
44214;SDS011;29884;47.450;19.124;2023-07-24T12:56:48;7.15;;;3.35;;
44214;SDS011;29884;47.450;19.124;2023-07-24T12:59:15;5.68;;;2.88;;
44214;SDS011;29884;47.450;19.124;2023-07-24T13:01:43;5.63;;;3.20;;
44214;SDS011;29884;47.450;19.124;2023-07-24T13:04:09;9.13;;;2.97;;
44214;SDS011;29884;47.450;19.124;2023-07-24T13:06:35;4.93;;;3.00;;
44214;SDS011;29884;47.450;19.124;2023-07-24T13:09:01;10.65;;;3.05;;
44214;SDS011;29884;47.450;19.124;2023-07-24T13:11:27;5.72;;;3.15;;
44214;SDS011;29884;47.450;19.124;2023-07-24T13:13:54;5.93;;;3.30;;
44214;SDS011;29884;47.450;19.124;2023-07-24T13:16:20;4.43;;;3.30;;
44214;SDS011;29884;47.450;19.124;2023-07-24T13:18:46;6.85;;;3.60;;
44214;SDS011;29884;47.450;19.124;2023-07-24T13:21:11;6.03;;;3.53;;
44214;SDS011;29884;47.450;19.124;2023-07-24T13:23:39;5.07;;;3.22;;
44214;SDS011;29884;47.450;19.124;2023-07-24T13:26:05;6.20;;;3.72;;
44214;SDS011;29884;47.450;19.124;2023-07-24T13:28:32;8.27;;;4.05;;
44214;SDS011;29884;47.450;19.124;2023-07-24T13:30:58;6.60;;;4.30;;
44214;SDS011;29884;47.450;19.124;2023-07-24T13:33:24;8.23;;;4.28;;
44214;SDS011;29884;47.450;19.124;2023-07-24T13:35:49;7.45;;;4.78;;
44214;SDS011;29884;47.450;19.124;2023-07-24T13:38:16;7.60;;;4.40;;
44214;SDS011;29884;47.450;19.124;2023-07-24T13:40:42;7.93;;;4.43;;
44214;SDS011;29884;47.450;19.124;2023-07-24T13:43:08;6.65;;;4.80;;
44214;SDS011;29884;47.450;19.124;2023-07-24T13:45:33;9.30;;;4.53;;
44214;SDS011;29884;47.450;19.124;2023-07-24T13:47:59;9.18;;;4.53;;
44214;SDS011;29884;47.450;19.124;2023-07-24T13:50:25;8.20;;;5.32;;
44214;SDS011;29884;47.450;19.124;2023-07-24T13:52:50;7.05;;;4.70;;
44214;SDS011;29884;47.450;19.124;2023-07-24T13:55:16;9.98;;;4.97;;
44214;SDS011;29884;47.450;19.124;2023-07-24T13:57:42;9.65;;;5.15;;
44214;SDS011;29884;47.450;19.124;2023-07-24T14:00:07;7.53;;;5.07;;
44214;SDS011;29884;47.450;19.124;2023-07-24T14:02:33;8.70;;;5.40;;
44214;SDS011;29884;47.450;19.124;2023-07-24T14:04:59;8.48;;;5.15;;
44214;SDS011;29884;47.450;19.124;2023-07-24T14:07:25;10.95;;;6.07;;
44214;SDS011;29884;47.450;19.124;2023-07-24T14:09:51;10.02;;;6.50;;
44214;SDS011;29884;47.450;19.124;2023-07-24T14:12:16;9.02;;;5.88;;
44214;SDS011;29884;47.450;19.124;2023-07-24T14:14:42;9.25;;;5.65;;
44214;SDS011;29884;47.450;19.124;2023-07-24T14:17:08;8.80;;;5.85;;
44214;SDS011;29884;47.450;19.124;2023-07-24T14:19:33;9.13;;;6.20;;
44214;SDS011;29884;47.450;19.124;2023-07-24T14:21:59;10.95;;;6.55;;
44214;SDS011;29884;47.450;19.124;2023-07-24T14:24:26;9.18;;;6.00;;
44214;SDS011;29884;47.450;19.124;2023-07-24T14:26:52;12.50;;;6.03;;
44214;SDS011;29884;47.450;19.124;2023-07-24T14:29:18;11.77;;;5.95;;
44214;SDS011;29884;47.450;19.124;2023-07-24T14:31:44;12.50;;;6.22;;
44214;SDS011;29884;47.450;19.124;2023-07-24T14:34:10;10.50;;;5.95;;
44214;SDS011;29884;47.450;19.124;2023-07-24T14:36:37;9.63;;;5.03;;
44214;SDS011;29884;47.450;19.124;2023-07-24T14:39:03;8.57;;;5.95;;
44214;SDS011;29884;47.450;19.124;2023-07-24T14:41:29;8.60;;;5.85;;
44214;SDS011;29884;47.450;19.124;2023-07-24T14:43:55;11.65;;;5.78;;
44214;SDS011;29884;47.450;19.124;2023-07-24T14:46:21;14.30;;;5.82;;